CheckWX is a tool to help pilots better visualize weather data.  It is not intended as a substitute for an official pre-flight weather briefing.

07:12:13 UTC

KCNM TAF
Cavern City Air Trml Airport
Carlsbad, New Mexico, USA
KCNM 200533Z 2006/2106 25011KT P6SM SCT250 FM201200 32005KT P6SM SKC FM201800 25012G22KT P6SM SKC

Jun-20@
06:00 UTC

Jun-20 @ 06:00 UTC

Jun-20@
12:00 UTC

Jun-20 @ 12:00 UTC

KCNM 200533Z 2006/2106 25011KT P6SM SCT250
Wind
  • 250° at 11 KTS
Cloud Levels
  • Scattered at 25,000' AGL

Jun-20@
12:00 UTC

Jun-20 @ 12:00 UTC

Jun-20@
18:00 UTC

Jun-20 @ 18:00 UTC

FM201200 32005KT P6SM SKC

From

From Standard forecast or significant change

Wind
  • 320° at 5 KTS
Cloud Levels
  • Clear skies

Jun-20@
18:00 UTC

Jun-20 @ 18:00 UTC

Jun-21@
06:00 UTC

Jun-21 @ 06:00 UTC

FM201800 25012G22KT P6SM SKC

From

From Standard forecast or significant change

Wind
  • 250° at 12 KTS
  • {Gusting to 22 KTS
Cloud Levels
  • Clear skies